Terminal Aerodrome Forecast
Issued by NWS

Home | Current Version | Previous Version | Text Only | Print | Product List | Glossary On
Versions: 1 2 3 4 5 6 7 8 9 10 11 12 13 14 15 16 17 18 19 20 21 22 23 24 25 26 27 28
907
FTUS41 KOKX 071120
TAFSWF
TAF
KSWF 071120Z 0712/0818 VRB03KT 3SM -RADZ BR OVC003
     FM071400 VRB03KT 4SM -RADZ BR OVC005
     FM071600 VRB03KT P6SM OVC008
     FM071800 29007KT P6SM OVC015
     FM072000 29006KT P6SM BKN020
     FM080000 VRB04KT P6SM SCT020 BKN150
     FM081300 27010G17KT P6SM BKN100
      AMD NOT SKED=

USA.gov is the U.S. government's official web portal to all federal, state and local government web resources and services.